Time;durP1;ratioP1;P1;durP2;ratioP2;P2;SDS_P1;SDS_P2;PMS_P1;PMS_P2;Temp;Humidity;BMP_temperature;BMP_pressure;BME280_temperature;BME280_humidity;BME280_pressure;Samples;Min_cycle;Max_cycle;Signal;HPM_P1;HPM_P2
2023/01/21 00:01:14;;;;;;;1555.63;613.37;;;-1.70;99.90;;;;;;5028026;28;20272;-53
2023/01/21 00:03:42;;;;;;;1156.27;582.20;;;-1.70;99.90;;;;;;5030214;28;20293;-53
2023/01/21 00:06:13;;;;;;;1095.77;616.07;;;-1.70;99.90;;;;;;5029456;28;20598;-53
2023/01/21 00:08:41;;;;;;;895.83;665.40;;;-1.80;99.90;;;;;;5030443;28;20206;-52
2023/01/21 00:11:13;;;;;;;715.20;461.43;;;-1.80;99.90;;;;;;5030563;28;20244;-53
2023/01/21 00:13:43;;;;;;;1999.90;874.40;;;-1.80;99.90;;;;;;5029997;28;20703;-53
2023/01/21 00:16:12;;;;;;;1793.10;707.63;;;-1.80;99.90;;;;;;5030331;28;20264;-53
2023/01/21 00:18:40;;;;;;;1549.00;622.60;;;-1.80;99.90;;;;;;5022821;28;20210;-53
2023/01/21 00:21:08;;;;;;;1999.90;999.90;;;-1.80;99.90;;;;;;5030108;28;20233;-53
2023/01/21 00:23:36;;;;;;;1999.90;999.90;;;-1.80;99.90;;;;;;5029288;28;20265;-53
2023/01/21 00:26:06;;;;;;;1999.90;999.90;;;-1.90;99.90;;;;;;5029263;28;20355;-50
2023/01/21 00:28:36;;;;;;;1855.70;925.93;;;-1.90;99.90;;;;;;5030297;28;20292;-49
2023/01/21 00:31:07;;;;;;;1966.97;913.40;;;-2.00;99.90;;;;;;5029892;28;20232;-50
2023/01/21 00:33:36;;;;;;;694.83;623.47;;;-2.00;99.90;;;;;;5029198;28;20211;-50
2023/01/21 00:36:07;;;;;;;1995.67;823.20;;;-2.10;99.90;;;;;;5029855;28;20210;-50
2023/01/21 00:38:35;;;;;;;827.50;637.43;;;-2.10;99.90;;;;;;5025736;28;20260;-50
2023/01/21 00:41:06;;;;;;;1594.87;803.67;;;-2.10;99.90;;;;;;5030213;28;20337;-51
2023/01/21 00:43:35;;;;;;;1855.23;973.80;;;-2.20;99.90;;;;;;5029614;28;20221;-50
2023/01/21 00:46:03;;;;;;;1279.70;791.27;;;-2.20;99.90;;;;;;5029822;28;20301;-50
2023/01/21 00:48:32;;;;;;;1062.60;704.03;;;-2.20;99.90;;;;;;5030044;28;20212;-50
2023/01/21 00:51:01;;;;;;;1999.90;904.57;;;-2.30;99.90;;;;;;5029737;28;20317;-50
2023/01/21 00:53:30;;;;;;;1999.90;999.90;;;-2.30;99.90;;;;;;5029358;28;20590;-50
2023/01/21 00:56:01;;;;;;;1999.90;936.30;;;-2.30;99.90;;;;;;5029098;28;20642;-50
2023/01/21 00:58:31;;;;;;;1051.63;728.60;;;-2.30;99.90;;;;;;5029808;28;20581;-50
2023/01/21 01:01:02;;;;;;;1999.90;999.90;;;-2.40;99.90;;;;;;5029268;28;20706;-53
2023/01/21 01:03:32;;;;;;;1999.90;999.90;;;-2.40;99.90;;;;;;5028886;28;20293;-53
2023/01/21 01:06:04;;;;;;;1607.10;945.73;;;-2.40;99.90;;;;;;5029349;28;20721;-53
2023/01/21 01:08:33;;;;;;;1999.90;999.90;;;-2.40;99.90;;;;;;5029194;28;20225;-53
2023/01/21 01:11:02;;;;;;;1999.90;999.90;;;-2.50;99.90;;;;;;5028258;28;20313;-53
2023/01/21 01:13:31;;;;;;;978.70;803.80;;;-2.50;99.90;;;;;;5027985;28;20207;-53
2023/01/21 01:16:00;;;;;;;1999.90;999.90;;;-2.50;99.90;;;;;;5021557;28;20215;-53
2023/01/21 01:18:31;;;;;;;1555.73;891.40;;;-2.60;99.90;;;;;;5026560;28;20762;-53
2023/01/21 01:21:01;;;;;;;1618.97;905.60;;;-2.60;99.90;;;;;;5029661;28;20266;-52
2023/01/21 01:23:30;;;;;;;1365.73;884.30;;;-2.60;99.90;;;;;;5027869;28;20769;-53
2023/01/21 01:25:59;;;;;;;1999.90;851.00;;;-2.70;99.90;;;;;;5026169;28;20293;-52
2023/01/21 01:28:28;;;;;;;1999.90;999.90;;;-2.70;99.90;;;;;;5029156;28;20231;-53
2023/01/21 01:30:57;;;;;;;1630.10;980.53;;;-2.70;99.90;;;;;;5029117;28;20249;-53
2023/01/21 01:33:26;;;;;;;1999.90;999.90;;;-2.80;99.90;;;;;;5029082;28;20639;-53
2023/01/21 01:35:55;;;;;;;999.13;817.67;;;-2.80;99.90;;;;;;5029275;28;20206;-53
2023/01/21 01:38:24;;;;;;;1155.87;913.90;;;-2.80;99.90;;;;;;5029874;28;20328;-53
2023/01/21 01:40:52;;;;;;;1607.37;999.90;;;-2.80;99.90;;;;;;5021823;28;20714;-53
2023/01/21 01:43:22;;;;;;;1105.07;864.00;;;-2.80;99.90;;;;;;5029025;28;20224;-53
2023/01/21 01:45:50;;;;;;;1157.53;910.97;;;-2.80;99.90;;;;;;5029476;28;20213;-53
2023/01/21 01:48:22;;;;;;;1338.50;736.53;;;-2.70;99.90;;;;;;5028756;28;20744;-53
2023/01/21 01:50:50;;;;;;;1245.57;941.50;;;-2.80;99.90;;;;;;5028932;28;20259;-53
2023/01/21 01:53:19;;;;;;;1999.90;994.97;;;-2.80;99.90;;;;;;5022813;28;20210;-53
2023/01/21 01:55:49;;;;;;;1197.03;882.50;;;-2.80;99.90;;;;;;5028684;28;20205;-53
2023/01/21 01:58:19;;;;;;;1341.33;847.57;;;-2.80;99.90;;;;;;5028918;28;20296;-53
2023/01/21 02:00:47;;;;;;;1285.60;854.73;;;-2.80;99.90;;;;;;5028871;28;20226;-53
2023/01/21 02:06:03;;;;;;;1163.03;874.00;;;-2.90;99.90;;;;;;5028883;28;20244;-53
2023/01/21 02:08:34;;;;;;;1636.30;937.03;;;-2.90;99.90;;;;;;5028545;28;20343;-53
2023/01/21 02:11:10;;;;;;;1999.90;967.53;;;-2.90;99.90;;;;;;5028872;28;20239;-53
2023/01/21 02:13:38;;;;;;;1733.70;978.87;;;-2.90;99.90;;;;;;5028539;28;20216;-54
2023/01/21 02:16:20;;;;;;;1191.87;888.73;;;-2.90;99.90;;;;;;5029063;28;20305;-54
2023/01/21 02:18:58;;;;;;;1431.90;997.37;;;-2.90;99.90;;;;;;5025810;28;20206;-52
2023/01/21 02:21:53;;;;;;;1088.10;897.43;;;-3.00;99.90;;;;;;5027856;28;20259;-54
2023/01/21 02:25:04;;;;;;;1689.10;999.90;;;-3.00;99.90;;;;;;5028889;28;20246;-54
2023/01/21 02:27:49;;;;;;;1525.23;998.63;;;-3.10;99.90;;;;;;5026789;28;20294;-53
2023/01/21 02:30:53;;;;;;;1211.50;999.90;;;-3.10;99.90;;;;;;5028990;28;20272;-54
2023/01/21 02:33:55;;;;;;;1998.87;999.90;;;-3.10;99.90;;;;;;5028372;28;20210;-53
2023/01/21 02:36:36;;;;;;;1999.90;999.90;;;-3.10;99.90;;;;;;5029305;28;20614;-53
2023/01/21 02:39:14;;;;;;;1892.47;999.90;;;-3.20;99.90;;;;;;5023943;28;20581;-53
2023/01/21 02:41:56;;;;;;;1179.57;918.70;;;-3.20;99.90;;;;;;5021275;28;20270;-54
2023/01/21 02:44:33;;;;;;;1590.80;999.90;;;-3.20;99.90;;;;;;5037935;28;20292;-54
2023/01/21 02:47:08;;;;;;;1389.37;991.20;;;-3.30;99.90;;;;;;5026935;28;20254;-54
2023/01/21 02:49:42;;;;;;;1594.77;911.03;;;-3.20;99.90;;;;;;5020878;28;20271;-53
2023/01/21 02:52:17;;;;;;;1599.07;999.90;;;-3.20;99.90;;;;;;5028505;28;20292;-54
2023/01/21 02:54:49;;;;;;;1458.87;922.90;;;-3.30;99.90;;;;;;5028325;28;20312;-52
2023/01/21 02:57:39;;;;;;;1984.23;999.90;;;-3.30;99.90;;;;;;5028727;28;20238;-52
2023/01/21 03:00:13;;;;;;;1368.07;996.80;;;-3.20;99.90;;;;;;5031497;28;20776;-54
2023/01/21 03:03:08;;;;;;;1586.43;993.53;;;-3.20;99.90;;;;;;5032233;28;20204;-53
2023/01/21 03:05:53;;;;;;;1927.77;999.90;;;-3.20;99.90;;;;;;5025509;28;20313;-53
2023/01/21 03:08:22;;;;;;;1659.50;924.93;;;-3.10;99.90;;;;;;5031750;28;20219;-54
2023/01/21 03:10:55;;;;;;;1148.97;942.00;;;-3.10;99.90;;;;;;5031664;28;20241;-54
2023/01/21 03:19:04;;;;;;;1999.90;994.63;;;-3.20;99.90;;;;;;5019810;28;20263;-51
2023/01/21 03:21:35;;;;;;;1332.90;987.97;;;-3.20;99.90;;;;;;5031484;28;20672;-54
2023/01/21 03:24:05;;;;;;;1303.93;985.43;;;-3.30;99.90;;;;;;5031778;28;20295;-53
2023/01/21 03:26:38;;;;;;;1936.40;955.90;;;-3.30;99.90;;;;;;5031390;28;20301;-54
2023/01/21 03:29:11;;;;;;;1898.33;972.40;;;-3.30;99.90;;;;;;5031929;28;20321;-53
2023/01/21 03:31:41;;;;;;;1301.33;919.47;;;-3.30;99.90;;;;;;5031614;28;20248;-54
2023/01/21 03:34:14;;;;;;;1256.53;959.47;;;-3.20;99.90;;;;;;5019989;28;20590;-53
2023/01/21 03:36:50;;;;;;;1573.33;968.53;;;-3.20;99.90;;;;;;5017919;28;20300;-53
2023/01/21 03:39:27;;;;;;;1870.03;977.77;;;-3.10;99.90;;;;;;5025575;28;20288;-53
2023/01/21 03:41:55;;;;;;;1400.87;999.90;;;-3.10;99.90;;;;;;5031303;28;20746;-54
2023/01/21 03:44:23;;;;;;;847.57;756.93;;;-3.00;99.90;;;;;;5030950;28;20246;-54
2023/01/21 03:47:00;;;;;;;989.37;863.47;;;-3.00;99.90;;;;;;5031107;28;20250;-53
2023/01/21 03:49:33;;;;;;;1245.70;977.73;;;-2.90;99.90;;;;;;5030996;28;20235;-53
2023/01/21 03:52:05;;;;;;;1074.20;963.10;;;-3.00;99.90;;;;;;5031281;28;20238;-53
2023/01/21 03:54:33;;;;;;;922.53;769.87;;;-3.00;99.90;;;;;;5031029;28;20251;-53
2023/01/21 03:57:01;;;;;;;1154.43;870.23;;;-3.00;99.90;;;;;;5023162;28;20244;-54
2023/01/21 03:59:29;;;;;;;828.03;749.83;;;-3.10;99.90;;;;;;5030720;28;20906;-53
2023/01/21 04:01:57;;;;;;;846.60;765.30;;;-3.20;99.90;;;;;;5030674;28;20303;-53
2023/01/21 04:04:25;;;;;;;929.70;832.73;;;-3.20;99.90;;;;;;5030254;28;20271;-53
2023/01/21 04:06:53;;;;;;;848.30;773.60;;;-3.20;99.90;;;;;;5025485;28;20300;-53
2023/01/21 04:09:23;;;;;;;905.53;819.53;;;-3.30;99.90;;;;;;5025151;28;20234;-53
2023/01/21 04:11:51;;;;;;;1060.03;948.17;;;-3.30;99.90;;;;;;5030473;28;20244;-53
2023/01/21 04:14:19;;;;;;;1195.53;973.20;;;-3.30;99.90;;;;;;5030225;28;20317;-53
2023/01/21 04:16:47;;;;;;;1136.40;999.90;;;-3.30;99.90;;;;;;5031068;28;20244;-53
2023/01/21 04:19:15;;;;;;;976.37;795.70;;;-3.40;99.90;;;;;;5026020;28;20758;-53
2023/01/21 04:21:43;;;;;;;989.10;895.37;;;-3.40;99.90;;;;;;5029935;28;20232;-53
2023/01/21 04:24:11;;;;;;;1049.43;935.77;;;-3.40;99.90;;;;;;5030130;28;20239;-53
2023/01/21 04:26:40;;;;;;;966.50;865.10;;;-3.40;99.90;;;;;;5030394;28;20339;-52
2023/01/21 04:29:08;;;;;;;885.27;800.17;;;-3.40;99.90;;;;;;5023587;28;20359;-52
2023/01/21 04:31:37;;;;;;;1163.90;999.90;;;-3.50;99.90;;;;;;5030087;28;20308;-51
2023/01/21 04:34:05;;;;;;;1008.67;901.73;;;-3.50;99.90;;;;;;5030160;28;20217;-52
2023/01/21 04:36:33;;;;;;;1024.33;888.73;;;-3.60;99.90;;;;;;5029973;28;20241;-51
2023/01/21 04:39:01;;;;;;;1054.93;945.07;;;-3.60;99.90;;;;;;5029649;28;20296;-51
2023/01/21 04:41:29;;;;;;;1288.10;967.97;;;-3.60;99.90;;;;;;5030145;28;20268;-51
2023/01/21 04:43:58;;;;;;;1075.30;887.60;;;-3.60;99.90;;;;;;5015160;28;20252;-53
2023/01/21 04:46:26;;;;;;;1000.67;904.73;;;-3.60;99.90;;;;;;5023278;28;20643;-52
2023/01/21 04:48:54;;;;;;;1249.77;999.90;;;-3.60;99.90;;;;;;5029614;28;20315;-53
2023/01/21 04:51:22;;;;;;;1079.57;952.43;;;-3.60;99.90;;;;;;5029722;28;20659;-53
2023/01/21 04:53:50;;;;;;;1066.07;947.67;;;-3.60;99.90;;;;;;5029519;28;20211;-54
2023/01/21 04:56:18;;;;;;;920.20;835.83;;;-3.70;99.90;;;;;;5016146;28;20251;-53
2023/01/21 04:58:46;;;;;;;978.20;878.33;;;-3.80;99.90;;;;;;5029477;28;20328;-53
2023/01/21 05:01:15;;;;;;;1007.93;905.03;;;-3.80;99.90;;;;;;5029570;28;20319;-53
2023/01/21 05:03:43;;;;;;;1080.70;962.63;;;-3.80;99.90;;;;;;5029813;28;20258;-54
2023/01/21 05:06:11;;;;;;;1097.30;967.10;;;-3.90;99.90;;;;;;5020221;28;20685;-54
2023/01/21 05:08:39;;;;;;;967.40;871.73;;;-3.90;99.90;;;;;;5029467;28;20759;-54
2023/01/21 05:11:08;;;;;;;889.03;802.60;;;-3.80;99.90;;;;;;5029323;28;20266;-52
2023/01/21 05:13:36;;;;;;;829.97;747.57;;;-3.80;99.90;;;;;;5028895;28;20311;-53
2023/01/21 05:16:07;;;;;;;1070.23;950.63;;;-3.70;99.90;;;;;;5028651;28;20923;-54
2023/01/21 05:18:37;;;;;;;1009.80;906.07;;;-3.70;99.90;;;;;;5028789;28;20720;-50
2023/01/21 05:21:05;;;;;;;901.00;812.93;;;-3.60;99.90;;;;;;5028214;28;20262;-53
2023/01/21 05:23:34;;;;;;;910.90;820.77;;;-3.50;99.90;;;;;;5028518;28;20238;-53
2023/01/21 05:26:02;;;;;;;835.63;754.50;;;-3.40;99.90;;;;;;5029085;28;20236;-51
2023/01/21 05:28:30;;;;;;;862.43;770.07;;;-3.30;99.90;;;;;;5029223;28;20295;-52
2023/01/21 05:31:01;;;;;;;1097.77;733.40;;;-3.30;99.90;;;;;;5029112;28;20824;-53
2023/01/21 05:33:30;;;;;;;881.60;792.17;;;-3.40;99.90;;;;;;5028905;28;20750;-53
2023/01/21 05:36:01;;;;;;;688.87;626.47;;;-3.30;99.90;;;;;;5028173;28;20212;-53
2023/01/21 05:38:29;;;;;;;1279.47;949.83;;;-3.20;99.90;;;;;;5025117;28;20830;-53
2023/01/21 05:40:58;;;;;;;904.63;812.13;;;-3.20;99.90;;;;;;5023115;28;20291;-54
2023/01/21 05:43:26;;;;;;;833.13;755.50;;;-3.10;99.90;;;;;;5024687;28;20213;-53
2023/01/21 05:45:54;;;;;;;718.50;649.87;;;-3.00;99.90;;;;;;5028992;28;20247;-53
2023/01/21 05:48:23;;;;;;;725.60;658.80;;;-3.00;99.90;;;;;;5029113;28;20208;-52
2023/01/21 05:50:51;;;;;;;768.90;699.23;;;-2.90;99.90;;;;;;5026459;28;20262;-54
2023/01/21 05:53:20;;;;;;;778.13;705.63;;;-2.90;99.90;;;;;;5018477;28;20208;-54
2023/01/21 05:55:51;;;;;;;597.67;543.23;;;-2.80;99.90;;;;;;5021962;28;20248;-53
2023/01/21 05:58:20;;;;;;;770.83;687.20;;;-2.70;99.90;;;;;;5028987;28;20294;-53
2023/01/21 06:00:48;;;;;;;1999.90;917.70;;;-2.70;99.90;;;;;;5028843;28;20791;-53
2023/01/21 06:03:17;;;;;;;922.00;657.40;;;-2.60;99.90;;;;;;5028459;28;20245;-53
2023/01/21 06:05:48;;;;;;;1999.90;869.10;;;-2.50;99.90;;;;;;5029377;28;20533;-54
2023/01/21 06:08:16;;;;;;;1999.90;848.67;;;-2.40;99.90;;;;;;5028655;28;20302;-53
2023/01/21 06:10:45;;;;;;;1252.30;687.93;;;-2.30;99.90;;;;;;5028830;28;20265;-54
2023/01/21 06:13:15;;;;;;;1210.43;620.97;;;-2.10;99.90;;;;;;5028289;28;20296;-54
2023/01/21 06:15:43;;;;;;;837.37;474.57;;;-2.00;99.90;;;;;;5028778;28;20300;-53
2023/01/21 06:18:11;;;;;;;1999.90;815.03;;;-1.90;99.90;;;;;;5028684;28;20213;-53
2023/01/21 06:20:39;;;;;;;1999.90;901.80;;;-1.90;99.90;;;;;;5021581;28;20258;-53
2023/01/21 06:23:07;;;;;;;1999.90;864.80;;;-1.90;99.90;;;;;;5025351;28;20214;-53
2023/01/21 06:25:35;;;;;;;1999.90;679.20;;;-1.80;99.90;;;;;;5028682;28;20889;-53
2023/01/21 06:28:05;;;;;;;1999.90;866.83;;;-1.80;99.90;;;;;;5028769;28;20245;-52
2023/01/21 06:30:33;;;;;;;1974.40;618.97;;;-1.70;99.90;;;;;;5028656;28;20305;-52
2023/01/21 06:33:01;;;;;;;1327.73;592.40;;;-1.70;99.90;;;;;;5024810;28;20243;-53
2023/01/21 06:35:29;;;;;;;871.60;405.17;;;-1.70;99.90;;;;;;5032479;28;20238;-53
2023/01/21 06:37:57;;;;;;;1999.90;999.90;;;-1.70;99.90;;;;;;5021052;28;20298;-53
2023/01/21 06:40:25;;;;;;;1216.23;555.20;;;-1.50;99.90;;;;;;5031685;28;20257;-53
2023/01/21 06:42:53;;;;;;;1617.37;671.80;;;-1.60;99.90;;;;;;5031894;28;20763;-53
2023/01/21 06:45:23;;;;;;;1999.90;995.77;;;-1.60;99.90;;;;;;5032169;28;20233;-53
2023/01/21 06:47:51;;;;;;;1999.90;601.87;;;-1.60;99.90;;;;;;5032278;28;20249;-54
2023/01/21 06:50:19;;;;;;;1999.90;807.37;;;-1.50;99.90;;;;;;5031803;28;20344;-53
2023/01/21 06:52:48;;;;;;;1999.90;713.50;;;-1.50;99.90;;;;;;5031948;28;20695;-54
2023/01/21 06:55:17;;;;;;;833.80;487.47;;;-1.50;99.90;;;;;;5026737;28;20238;-52
2023/01/21 06:57:45;;;;;;;1999.90;827.37;;;-1.50;99.90;;;;;;5032114;28;20695;-53
2023/01/21 07:00:14;;;;;;;1720.83;670.90;;;-1.50;99.90;;;;;;5032084;28;20662;-54
2023/01/21 07:02:44;;;;;;;734.27;421.00;;;-1.50;99.90;;;;;;5031500;28;20220;-53
2023/01/21 07:05:13;;;;;;;572.67;509.87;;;-1.30;99.90;;;;;;5032249;28;20214;-53
2023/01/21 07:07:42;;;;;;;337.03;258.60;;;-1.30;99.90;;;;;;5032063;28;20237;-54
2023/01/21 07:10:11;;;;;;;1999.90;898.63;;;-1.30;99.90;;;;;;5029429;28;20235;-54
2023/01/21 07:12:39;;;;;;;1999.90;628.03;;;-1.20;99.90;;;;;;5023179;28;20734;-53
2023/01/21 07:15:08;;;;;;;1999.90;838.03;;;-1.20;99.90;;;;;;5029500;28;20740;-53
2023/01/21 07:17:36;;;;;;;864.27;486.13;;;-1.20;99.90;;;;;;5025418;28;20409;-53
2023/01/21 07:20:07;;;;;;;1484.10;442.27;;;-1.20;99.90;;;;;;5022617;28;20250;-51
2023/01/21 07:22:35;;;;;;;1999.90;981.43;;;-1.20;99.90;;;;;;5022219;28;20980;-54
2023/01/21 07:25:04;;;;;;;1999.90;661.60;;;-1.20;99.90;;;;;;5030572;28;20983;-54
2023/01/21 07:27:32;;;;;;;1038.03;341.87;;;-1.20;99.90;;;;;;5022582;28;20793;-54
2023/01/21 07:30:00;;;;;;;1802.00;653.30;;;-1.10;99.90;;;;;;5028320;28;20262;-52
2023/01/21 07:32:28;;;;;;;643.67;444.87;;;-1.10;99.90;;;;;;5026420;28;20243;-53
2023/01/21 07:34:56;;;;;;;1999.90;675.30;;;-1.00;99.90;;;;;;5029169;28;20680;-53
2023/01/21 07:37:25;;;;;;;1999.90;787.40;;;-1.00;99.90;;;;;;5028853;28;20742;-54
2023/01/21 07:39:54;;;;;;;1999.90;816.97;;;-1.00;99.90;;;;;;5029458;28;20280;-54
2023/01/21 07:42:22;;;;;;;1999.90;615.53;;;-1.00;99.90;;;;;;5029625;28;20298;-53
2023/01/21 07:44:50;;;;;;;1789.07;687.97;;;-1.00;99.90;;;;;;5030390;28;20235;-54
2023/01/21 07:47:18;;;;;;;1965.93;669.80;;;-1.00;99.90;;;;;;5030690;28;20234;-54
2023/01/21 07:49:48;;;;;;;1999.90;770.27;;;-1.00;99.90;;;;;;5031207;28;20319;-54
2023/01/21 07:52:17;;;;;;;999.07;321.70;;;-0.90;99.90;;;;;;5026026;28;20700;-54
2023/01/21 07:54:47;;;;;;;847.23;365.57;;;-0.90;99.90;;;;;;5031311;28;20658;-53
2023/01/21 07:57:15;;;;;;;1999.90;999.90;;;-0.90;99.90;;;;;;5019219;28;20301;-53
2023/01/21 07:59:43;;;;;;;1996.87;738.73;;;-0.80;99.90;;;;;;5017268;28;20365;-53
2023/01/21 08:02:12;;;;;;;1999.90;798.17;;;-0.70;99.90;;;;;;5030788;28;20243;-53
2023/01/21 08:04:40;;;;;;;1999.90;851.10;;;-0.80;99.90;;;;;;5030703;28;20243;-53
2023/01/21 08:07:09;;;;;;;1999.90;916.20;;;-0.80;99.90;;;;;;5031208;28;20250;-53
2023/01/21 08:09:40;;;;;;;1954.70;618.67;;;-0.80;99.90;;;;;;5030421;28;20251;-54
2023/01/21 08:12:10;;;;;;;600.20;298.97;;;-0.90;99.90;;;;;;5030433;28;20265;-53
2023/01/21 08:14:39;;;;;;;1999.90;690.40;;;-0.80;99.90;;;;;;5029899;28;20634;-53
2023/01/21 08:17:06;;;;;;;1590.07;586.43;;;-0.90;99.90;;;;;;5030329;28;20230;-54
2023/01/21 08:19:35;;;;;;;446.93;346.90;;;-0.80;99.90;;;;;;5030124;28;20647;-53
2023/01/21 08:22:03;;;;;;;1999.90;959.87;;;-0.80;99.90;;;;;;5028557;28;20231;-53
2023/01/21 08:24:31;;;;;;;1999.90;781.70;;;-0.90;99.90;;;;;;5028389;28;20239;-53
2023/01/21 08:26:59;;;;;;;1999.90;741.60;;;-0.80;99.90;;;;;;5022383;28;20236;-54
2023/01/21 08:29:28;;;;;;;513.63;438.73;;;-0.80;99.90;;;;;;5027803;28;20203;-54
2023/01/21 08:31:57;;;;;;;1999.90;760.00;;;-0.80;99.90;;;;;;5030767;28;20300;-53
2023/01/21 08:34:26;;;;;;;1999.90;881.63;;;-0.80;99.90;;;;;;5033629;28;20207;-53
2023/01/21 08:36:53;;;;;;;631.80;359.30;;;-0.60;99.90;;;;;;5025913;28;20711;-54
2023/01/21 08:39:22;;;;;;;1999.90;979.83;;;-0.60;99.90;;;;;;5015410;28;20234;-53
2023/01/21 08:41:50;;;;;;;506.97;333.00;;;-0.60;99.90;;;;;;5017889;28;20203;-53
2023/01/21 08:44:18;;;;;;;466.73;267.13;;;-0.60;99.90;;;;;;5025698;28;20202;-54
2023/01/21 08:46:47;;;;;;;1999.90;650.10;;;-0.60;99.90;;;;;;5028347;28;20714;-54
2023/01/21 08:49:15;;;;;;;1578.03;578.37;;;-0.60;99.90;;;;;;5027347;28;20295;-52
2023/01/21 08:51:44;;;;;;;1229.53;471.03;;;-0.60;99.90;;;;;;5029189;28;20646;-54
2023/01/21 08:54:12;;;;;;;1988.27;628.43;;;-0.50;99.90;;;;;;5029769;28;20303;-54
2023/01/21 08:56:40;;;;;;;1999.90;842.87;;;-0.50;99.90;;;;;;5026498;28;20257;-53
2023/01/21 08:59:08;;;;;;;1816.03;710.93;;;-0.60;99.90;;;;;;5020033;28;20198;-53
2023/01/21 09:01:39;;;;;;;1999.90;611.73;;;-0.50;99.90;;;;;;5021505;28;20205;-54
2023/01/21 09:04:09;;;;;;;361.10;322.30;;;-0.50;99.90;;;;;;5025739;28;20203;-54
2023/01/21 09:06:37;;;;;;;1999.90;944.97;;;-0.40;99.90;;;;;;5017309;28;20292;-54
2023/01/21 09:09:05;;;;;;;1999.90;804.63;;;-0.40;99.90;;;;;;5033087;28;20239;-53
2023/01/21 09:11:33;;;;;;;1999.90;999.90;;;-0.40;99.90;;;;;;5027644;28;20313;-53
2023/01/21 09:14:02;;;;;;;1999.90;845.43;;;-0.30;99.90;;;;;;5027483;28;20239;-52
2023/01/21 09:16:31;;;;;;;508.93;325.47;;;-0.30;99.90;;;;;;5023078;28;20204;-53
2023/01/21 09:19:00;;;;;;;1999.73;582.67;;;-0.30;99.90;;;;;;5034196;28;20211;-54
2023/01/21 09:21:29;;;;;;;1999.90;595.80;;;-0.40;99.90;;;;;;5028661;28;20672;-53
2023/01/21 09:23:57;;;;;;;1733.43;520.07;;;-0.40;99.90;;;;;;5028159;28;20211;-54
2023/01/21 09:26:26;;;;;;;1999.90;909.17;;;-0.30;99.90;;;;;;5027711;28;20299;-53
2023/01/21 09:28:55;;;;;;;1999.90;795.90;;;-0.30;99.90;;;;;;5028556;28;20238;-54
2023/01/21 09:31:25;;;;;;;1999.90;774.00;;;-0.30;99.90;;;;;;5028383;28;20319;-54
2023/01/21 09:33:55;;;;;;;1754.97;618.43;;;-0.20;99.90;;;;;;5028656;28;20215;-53
2023/01/21 09:36:24;;;;;;;1999.90;924.40;;;-0.20;99.90;;;;;;5029115;28;20199;-53
2023/01/21 09:38:54;;;;;;;1999.90;702.03;;;-0.20;99.90;;;;;;5024332;28;20264;-53
2023/01/21 09:41:28;;;;;;;1999.90;817.27;;;-0.20;99.90;;;;;;5028833;28;20254;-53
2023/01/21 09:44:05;;;;;;;1999.90;867.17;;;-0.20;99.90;;;;;;5028792;28;20687;-53
2023/01/21 09:46:39;;;;;;;1999.90;744.10;;;0.00;99.90;;;;;;5028799;28;20243;-53
2023/01/21 09:49:14;;;;;;;1999.90;859.00;;;0.00;99.90;;;;;;5029260;28;20239;-52
2023/01/21 09:51:52;;;;;;;1999.90;703.70;;;0.00;99.90;;;;;;5028919;28;20257;-53
2023/01/21 09:54:26;;;;;;;1999.90;856.10;;;0.10;99.90;;;;;;5028535;28;20213;-53
2023/01/21 09:57:27;;;;;;;1999.90;748.37;;;0.10;99.90;;;;;;5021766;28;20238;-53
2023/01/21 10:00:06;;;;;;;1999.90;669.37;;;0.20;99.90;;;;;;5017084;28;20753;-53
2023/01/21 10:02:42;;;;;;;1999.90;755.57;;;0.20;99.90;;;;;;5017961;28;20232;-52
2023/01/21 10:05:55;;;;;;;1184.70;378.60;;;0.20;99.90;;;;;;5028943;28;20254;-52
2023/01/21 10:08:30;;;;;;;1999.90;748.60;;;0.30;99.90;;;;;;4991140;28;20239;-52
2023/01/21 10:11:10;;;;;;;1999.90;888.87;;;0.30;99.90;;;;;;5031928;28;20319;-52
2023/01/21 10:13:50;;;;;;;1999.90;937.77;;;0.20;99.90;;;;;;5026623;28;20238;-52
2023/01/21 10:16:26;;;;;;;1999.90;999.90;;;0.30;99.90;;;;;;5025057;28;21039;-52
2023/01/21 10:18:58;;;;;;;1999.90;748.03;;;0.50;99.90;;;;;;5032890;28;20294;-53
2023/01/21 10:21:32;;;;;;;1999.90;582.73;;;0.50;99.90;;;;;;5023813;28;20308;-53
2023/01/21 10:24:06;;;;;;;1999.90;772.90;;;0.40;99.90;;;;;;5022893;28;20291;-53
2023/01/21 10:26:36;;;;;;;1999.90;996.73;;;0.50;99.90;;;;;;5018634;28;20231;-53
2023/01/21 10:29:05;;;;;;;1999.90;820.17;;;0.50;99.90;;;;;;5032200;28;20469;-52
2023/01/21 10:31:40;;;;;;;1999.90;872.53;;;0.40;99.90;;;;;;5032503;28;20282;-52
2023/01/21 10:34:13;;;;;;;1999.90;999.90;;;0.50;99.90;;;;;;5027889;28;20611;-52
2023/01/21 10:37:03;;;;;;;1990.00;520.33;;;0.40;99.90;;;;;;5027111;28;20206;-52
2023/01/21 10:39:43;;;;;;;1999.90;579.37;;;0.40;99.90;;;;;;5022186;28;20314;-52
2023/01/21 10:42:51;;;;;;;1999.90;892.27;;;0.30;99.90;;;;;;5031855;28;20772;-53
2023/01/21 10:45:29;;;;;;;1999.90;915.37;;;0.50;99.90;;;;;;5027410;28;20212;-52
2023/01/21 10:48:04;;;;;;;1999.90;658.60;;;0.40;99.90;;;;;;5031016;28;20244;-52
2023/01/21 10:50:44;;;;;;;1999.90;963.87;;;0.40;99.90;;;;;;5014946;28;20778;-53
2023/01/21 10:53:20;;;;;;;1999.90;830.20;;;0.50;99.90;;;;;;5014208;28;20688;-53
2023/01/21 10:56:00;;;;;;;1551.57;620.73;;;0.50;99.90;;;;;;5023643;28;20213;-52
2023/01/21 10:58:33;;;;;;;1999.90;894.73;;;0.60;99.90;;;;;;5026248;28;20271;-52
2023/01/21 11:01:05;;;;;;;1999.90;916.77;;;0.60;99.90;;;;;;5027768;28;20272;-53
2023/01/21 11:03:40;;;;;;;765.70;385.30;;;0.50;99.90;;;;;;5028894;28;20208;-53
2023/01/21 11:06:11;;;;;;;1999.90;999.90;;;0.60;99.90;;;;;;5019490;28;20208;-53
2023/01/21 11:08:41;;;;;;;1199.57;469.90;;;0.60;99.90;;;;;;5024744;28;20211;-52
2023/01/21 11:11:09;;;;;;;525.03;227.93;;;0.60;99.90;;;;;;5029445;28;20827;-53
2023/01/21 11:13:40;;;;;;;1999.90;652.17;;;0.70;99.90;;;;;;5028992;28;20222;-53
2023/01/21 11:16:09;;;;;;;1545.03;494.63;;;0.70;99.90;;;;;;5043109;28;20218;-53
2023/01/21 11:18:39;;;;;;;1965.07;635.80;;;0.60;99.90;;;;;;5038235;28;20247;-49
2023/01/21 11:21:17;;;;;;;1999.90;696.80;;;0.50;99.90;;;;;;5030843;28;20267;-51
2023/01/21 11:23:54;;;;;;;1999.90;573.20;;;0.60;99.90;;;;;;5030787;28;20759;-50
2023/01/21 11:26:26;;;;;;;1027.03;471.10;;;0.60;99.90;;;;;;5025751;28;20295;-51
2023/01/21 11:29:13;;;;;;;1999.90;978.23;;;0.60;99.90;;;;;;5040141;28;20232;-51
2023/01/21 11:31:43;;;;;;;1999.90;916.00;;;0.60;99.90;;;;;;5030187;28;20209;-51
2023/01/21 11:34:14;;;;;;;1999.90;936.23;;;0.40;99.90;;;;;;5031250;28;20227;-50
2023/01/21 11:37:00;;;;;;;1607.37;480.67;;;0.40;99.90;;;;;;5040212;28;20287;-51
2023/01/21 11:39:30;;;;;;;598.67;242.87;;;0.50;99.90;;;;;;5030956;28;20213;-51
2023/01/21 11:42:02;;;;;;;1999.90;855.10;;;0.60;99.90;;;;;;5044098;28;20914;-51
2023/01/21 11:44:33;;;;;;;1999.90;844.63;;;0.60;99.90;;;;;;5044666;28;20626;-50
2023/01/21 11:47:01;;;;;;;1481.17;573.13;;;0.50;99.90;;;;;;5034950;28;20208;-51
2023/01/21 11:49:32;;;;;;;1187.83;488.03;;;0.60;99.90;;;;;;5040902;28;20655;-51
2023/01/21 11:52:21;;;;;;;1090.07;400.40;;;0.50;99.90;;;;;;5027475;28;20254;-52
2023/01/21 11:54:49;;;;;;;1999.90;633.50;;;0.50;99.90;;;;;;5020530;28;20307;-50
2023/01/21 11:57:31;;;;;;;1999.90;999.90;;;0.40;99.90;;;;;;5041659;28;20330;-50
2023/01/21 12:00:08;;;;;;;1999.90;926.07;;;0.50;99.90;;;;;;5028216;28;20355;-50
2023/01/21 12:02:42;;;;;;;1999.90;925.83;;;0.30;99.90;;;;;;5030603;28;20206;-50
2023/01/21 12:05:16;;;;;;;1217.03;436.53;;;0.30;99.90;;;;;;5030853;28;20222;-50
2023/01/21 12:07:49;;;;;;;1809.90;517.40;;;0.30;99.90;;;;;;5024337;28;20720;-50
2023/01/21 12:10:27;;;;;;;1999.90;770.17;;;0.40;99.90;;;;;;5030468;28;20263;-50
2023/01/21 12:13:18;;;;;;;396.40;255.60;;;0.30;99.90;;;;;;5030569;28;20883;-50
2023/01/21 12:16:20;;;;;;;1999.90;823.03;;;0.30;99.90;;;;;;5040541;28;20229;-52
2023/01/21 12:19:17;;;;;;;1282.00;514.87;;;0.30;99.90;;;;;;5036312;28;20221;-52
2023/01/21 12:22:07;;;;;;;1256.27;457.50;;;0.40;99.90;;;;;;5029172;28;20293;-50
2023/01/21 12:24:48;;;;;;;538.57;304.30;;;0.50;99.90;;;;;;5027180;28;20204;-50
2023/01/21 12:27:26;;;;;;;1760.63;537.63;;;0.60;99.90;;;;;;5025818;28;20739;-50
2023/01/21 12:30:07;;;;;;;276.47;247.30;;;0.70;99.90;;;;;;5027122;28;20226;-50
2023/01/21 12:32:42;;;;;;;1462.00;486.47;;;0.80;99.90;;;;;;5024546;28;20830;-50
2023/01/21 12:35:13;;;;;;;949.33;344.03;;;0.80;99.90;;;;;;5025208;28;20289;-50